createdAt,value
2019-04-05T00:01:40.517Z,1536.57
2019-04-05T00:04:09.300Z,1789.70
2019-04-05T00:06:38.083Z,1353.73
2019-04-05T00:09:07.544Z,1539.67
2019-04-05T00:11:36.395Z,1240.57
2019-04-05T00:14:05.421Z,975.37
2019-04-05T00:16:34.205Z,759.80
2019-04-05T00:19:03.080Z,413.83
2019-04-05T00:21:31.856Z,670.90
2019-04-05T00:24:00.647Z,929.60
2019-04-05T00:26:29.424Z,652.17
2019-04-05T00:28:58.212Z,1173.60
2019-04-05T00:31:26.996Z,1088.07
2019-04-05T00:33:55.848Z,868.50
2019-04-05T00:36:24.638Z,780.67
2019-04-05T00:38:53.428Z,848.13
2019-04-05T00:41:22.293Z,1136.47
2019-04-05T00:43:51.076Z,525.60
2019-04-05T00:46:19.995Z,765.63
2019-04-05T00:48:48.852Z,777.20
2019-04-05T00:51:17.701Z,726.03
2019-04-05T00:53:46.628Z,554.63
2019-04-05T00:56:15.478Z,581.83
2019-04-05T00:58:44.426Z,589.97
2019-04-05T01:01:13.349Z,670.53
2019-04-05T01:03:42.120Z,451.20
2019-04-05T01:06:11.255Z,587.80
2019-04-05T01:08:40.204Z,613.90
2019-04-05T01:11:09.243Z,679.70
2019-04-05T01:13:38.571Z,824.40
2019-04-05T01:16:07.432Z,1141.70
2019-04-05T01:18:36.219Z,1096.30
2019-04-05T01:21:05.587Z,726.73
2019-04-05T01:23:35.847Z,740.53
2019-04-05T01:26:04.786Z,1108.00
2019-04-05T01:28:34.146Z,909.00
2019-04-05T01:31:03.012Z,950.63
2019-04-05T01:33:31.783Z,755.20
2019-04-05T01:36:00.643Z,556.50
2019-04-05T01:38:29.808Z,512.27
2019-04-05T01:40:59.969Z,608.83
2019-04-05T01:43:29.012Z,541.40
2019-04-05T01:45:58.548Z,491.57
2019-04-05T01:48:27.366Z,366.27
2019-04-05T01:50:56.272Z,408.73
2019-04-05T01:53:25.055Z,627.63
2019-04-05T01:55:53.909Z,582.50
2019-04-05T01:58:22.689Z,589.23
2019-04-05T02:00:51.575Z,469.20
2019-04-05T02:03:20.585Z,502.80
2019-04-05T02:05:49.447Z,368.60
2019-04-05T02:08:18.296Z,552.57
2019-04-05T02:10:47.332Z,517.03
2019-04-05T02:13:16.261Z,536.60
2019-04-05T02:15:45.205Z,524.23
2019-04-05T02:18:14.076Z,278.83
2019-04-05T02:20:43.037Z,403.47
2019-04-05T02:23:11.896Z,401.30
2019-04-05T02:25:40.760Z,464.97
2019-04-05T02:28:09.680Z,285.50
2019-04-05T02:30:38.564Z,209.10
2019-04-05T02:33:07.494Z,163.90
2019-04-05T02:35:39.101Z,95.83
2019-04-05T02:38:07.173Z,141.63
2019-04-05T02:40:38.694Z,125.67
2019-04-05T02:43:09.701Z,88.50
2019-04-05T02:45:40.600Z,55.90
2019-04-05T02:48:11.473Z,69.47
2019-04-05T02:50:44.109Z,99.87
2019-04-05T02:53:13.445Z,77.10
2019-04-05T02:55:44.192Z,74.70
2019-04-05T02:58:13.864Z,64.70
2019-04-05T03:00:44.223Z,112.93
2019-04-05T03:03:14.443Z,109.57
2019-04-05T03:05:47.365Z,147.87
2019-04-05T03:08:17.127Z,65.53
2019-04-05T03:11:00.253Z,70.33
2019-04-05T03:13:31.488Z,60.27
2019-04-05T03:16:03.736Z,52.53
2019-04-05T03:18:35.867Z,71.17
2019-04-05T03:21:07.532Z,64.20
2019-04-05T03:23:39.474Z,65.33
2019-04-05T03:26:11.459Z,62.07
2019-04-05T03:28:43.184Z,59.33
2019-04-05T03:31:12.795Z,58.27
2019-04-05T03:33:42.027Z,126.60
2019-04-05T03:36:11.072Z,76.10
2019-04-05T03:38:40.994Z,67.70
2019-04-05T03:41:10.969Z,84.80
2019-04-05T03:43:40.677Z,87.43
2019-04-05T03:46:09.888Z,103.57
2019-04-05T03:48:38.743Z,74.63
2019-04-05T03:51:08.895Z,77.33
2019-04-05T03:53:37.815Z,73.67
2019-04-05T03:56:06.765Z,77.40
2019-04-05T03:58:35.964Z,102.37
2019-04-05T04:01:04.940Z,77.97
2019-04-05T04:03:34.381Z,90.10
2019-04-05T04:06:03.361Z,72.47
2019-04-05T04:08:32.350Z,85.27
2019-04-05T04:11:01.583Z,61.30
2019-04-05T04:13:30.609Z,73.43
2019-04-05T04:16:00.047Z,73.47
2019-04-05T04:18:29.076Z,61.47
2019-04-05T04:21:02.152Z,44.43
2019-04-05T04:23:31.664Z,55.43
2019-04-05T04:26:01.801Z,42.97
2019-04-05T04:28:30.655Z,65.40
2019-04-05T04:30:59.505Z,121.03
2019-04-05T04:33:28.530Z,97.50
2019-04-05T04:35:57.551Z,103.17
2019-04-05T04:38:27.580Z,191.27
2019-04-05T04:40:56.526Z,252.73
2019-04-05T04:43:26.687Z,246.87
2019-04-05T04:45:55.711Z,202.63
2019-04-05T04:48:24.745Z,241.23
2019-04-05T04:50:53.971Z,410.40
2019-04-05T04:53:23.611Z,597.07
2019-04-05T04:55:52.636Z,508.33
2019-04-05T04:58:21.500Z,610.30
2019-04-05T05:00:50.345Z,329.10
2019-04-05T05:03:19.388Z,208.97
2019-04-05T05:05:48.248Z,214.63
2019-04-05T05:08:19.268Z,189.97
2019-04-05T05:10:48.542Z,165.30
2019-04-05T05:13:17.496Z,318.23
2019-04-05T05:15:46.948Z,367.13
2019-04-05T05:18:15.893Z,317.23
2019-04-05T05:20:44.740Z,281.57
2019-04-05T05:23:13.738Z,290.53
2019-04-05T05:25:42.669Z,259.03
2019-04-05T05:28:11.969Z,262.93
2019-04-05T05:30:40.973Z,165.73
2019-04-05T05:33:13.073Z,214.27
2019-04-05T05:35:42.019Z,116.50
2019-04-05T05:38:10.965Z,209.20
2019-04-05T05:40:39.891Z,225.30
2019-04-05T05:43:08.695Z,201.47
2019-04-05T05:45:37.646Z,341.30
2019-04-05T05:48:06.590Z,337.63
2019-04-05T05:50:35.946Z,264.40
2019-04-05T05:53:05.025Z,296.77
2019-04-05T05:55:33.808Z,358.57
2019-04-05T05:58:02.605Z,375.53
2019-04-05T06:00:31.420Z,433.33
2019-04-05T06:03:00.259Z,404.77
2019-04-05T06:05:29.082Z,524.57
2019-04-05T06:07:58.758Z,571.47
2019-04-05T06:10:28.494Z,333.30
2019-04-05T06:12:58.719Z,550.60
2019-04-05T06:15:27.823Z,295.37
2019-04-05T06:18:04.738Z,377.97
2019-04-05T06:20:27.147Z,835.97
2019-04-05T06:22:55.940Z,334.97
2019-04-05T06:25:24.804Z,540.47
2019-04-05T06:27:53.601Z,579.50
2019-04-05T06:30:22.455Z,270.80
2019-04-05T06:32:51.264Z,398.70
2019-04-05T06:35:20.050Z,420.17
2019-04-05T06:40:41.479Z,542.73
2019-04-05T06:43:10.351Z,435.33
2019-04-05T06:45:39.236Z,364.53
2019-04-05T06:48:18.460Z,289.67
2019-04-05T06:50:38.633Z,207.17
2019-04-05T06:53:07.433Z,270.40
2019-04-05T06:55:36.338Z,255.67
2019-04-05T06:58:05.280Z,179.60
2019-04-05T07:00:34.080Z,226.73
2019-04-05T07:03:02.984Z,275.10
2019-04-05T07:05:31.771Z,216.87
2019-04-05T07:08:00.577Z,192.63
2019-04-05T07:10:29.378Z,161.20
2019-04-05T07:13:04.240Z,132.43
2019-04-05T07:15:33.089Z,130.20
2019-04-05T07:18:13.152Z,103.83
2019-04-05T07:20:41.943Z,121.93
2019-04-05T07:23:10.748Z,136.50
2019-04-05T07:25:41.903Z,159.43
2019-04-05T07:28:10.798Z,235.27
2019-04-05T07:30:39.697Z,206.77
2019-04-05T07:33:10.580Z,106.30
2019-04-05T07:35:40.484Z,147.40
2019-04-05T07:38:09.898Z,85.77
2019-04-05T07:40:40.984Z,72.90
2019-04-05T07:43:09.809Z,78.33
2019-04-05T07:45:38.690Z,153.43
2019-04-05T07:48:27.824Z,137.30
2019-04-05T07:50:57.748Z,90.40
2019-04-05T07:53:26.545Z,62.27
2019-04-05T07:55:55.421Z,78.97
2019-04-05T07:58:25.359Z,139.63
2019-04-05T08:01:01.941Z,119.00
2019-04-05T08:04:15.249Z,59.83
2019-04-05T08:06:47.515Z,58.13
2019-04-05T08:09:16.900Z,95.67
2019-04-05T08:11:47.036Z,75.63
2019-04-05T08:14:18.193Z,90.37
2019-04-05T08:16:49.360Z,59.07
2019-04-05T08:19:18.354Z,55.97
2019-04-05T08:21:47.231Z,83.23
2019-04-05T08:24:16.203Z,68.17
2019-04-05T08:26:46.042Z,43.10
2019-04-05T08:29:24.854Z,60.87
2019-04-05T08:32:14.362Z,62.53
2019-04-05T08:34:41.574Z,58.07
2019-04-05T08:37:12.708Z,55.67
2019-04-05T08:39:43.865Z,34.37
2019-04-05T08:42:14.767Z,48.37
2019-04-05T08:44:51.710Z,39.73
2019-04-05T08:47:22.590Z,28.60
2019-04-05T08:50:06.964Z,28.97
2019-04-05T08:52:44.883Z,28.27
2019-04-05T08:55:17.045Z,28.90
2019-04-05T08:57:54.043Z,29.40
2019-04-05T09:00:22.872Z,28.13
2019-04-05T09:02:51.675Z,30.00
2019-04-05T09:05:20.621Z,27.83
2019-04-05T09:07:49.413Z,30.13
2019-04-05T09:10:18.205Z,28.37
2019-04-05T09:12:47.001Z,28.13
2019-04-05T09:15:15.931Z,30.03
2019-04-05T09:17:44.708Z,29.53
2019-04-05T09:20:13.771Z,27.37
2019-04-05T09:22:42.547Z,28.40
2019-04-05T09:25:11.427Z,29.50
2019-04-05T09:27:40.225Z,29.77
2019-04-05T09:30:09.371Z,32.00
2019-04-05T09:32:38.148Z,30.13
2019-04-05T09:35:07.481Z,31.17
2019-04-05T09:37:36.276Z,31.80
2019-04-05T09:40:05.559Z,30.90
2019-04-05T09:42:34.419Z,32.53
2019-04-05T09:45:03.392Z,35.17
2019-04-05T09:47:32.173Z,33.40
2019-04-05T09:50:00.980Z,32.53
2019-04-05T09:53:49.614Z,32.63
2019-04-05T09:56:18.539Z,32.83
2019-04-05T09:58:47.312Z,33.60
2019-04-05T10:01:16.201Z,35.33
2019-04-05T10:03:44.983Z,33.57
2019-04-05T10:06:13.780Z,32.93
2019-04-05T10:08:42.552Z,30.33
2019-04-05T10:11:11.338Z,34.80
2019-04-05T10:13:40.114Z,32.27
2019-04-05T10:16:08.958Z,30.53
2019-04-05T10:18:37.797Z,31.53
2019-04-05T10:21:06.689Z,31.43
2019-04-05T10:23:35.465Z,30.40
2019-04-05T10:26:04.583Z,30.50
2019-04-05T10:28:33.401Z,31.67
2019-04-05T10:31:02.193Z,28.47
2019-04-05T10:33:30.969Z,29.97
2019-04-05T10:35:59.765Z,31.53
2019-04-05T10:38:28.797Z,31.90
2019-04-05T10:40:57.580Z,33.40
2019-04-05T10:43:26.348Z,32.80
2019-04-05T10:45:55.166Z,32.30
2019-04-05T10:48:24.017Z,33.30
2019-04-05T10:50:53.050Z,34.13
2019-04-05T10:53:21.848Z,34.87
2019-04-05T10:55:50.940Z,35.13
2019-04-05T10:58:19.719Z,67.27
2019-04-05T11:00:48.848Z,502.63
2019-04-05T11:03:17.729Z,763.80
2019-04-05T11:05:49.239Z,1050.23
2019-04-05T11:08:18.352Z,1808.30
2019-04-05T11:10:47.288Z,1819.37
2019-04-05T11:13:16.217Z,1680.23
2019-04-05T11:15:45.012Z,1944.20
2019-04-05T11:18:13.922Z,1418.20
2019-04-05T11:20:42.819Z,1496.57
2019-04-05T11:23:11.607Z,1156.90
2019-04-05T11:25:40.400Z,1100.80
2019-04-05T11:28:09.189Z,1364.77
2019-04-05T11:30:43.155Z,1029.37
2019-04-05T11:33:12.084Z,575.63
2019-04-05T11:35:40.960Z,740.90
2019-04-05T11:38:09.835Z,811.87
2019-04-05T11:41:24.410Z,557.97
2019-04-05T11:46:49.383Z,499.93
2019-04-05T11:49:19.231Z,522.23
2019-04-05T11:51:48.900Z,62.23
2019-04-05T11:54:18.490Z,222.43
2019-04-05T11:56:47.505Z,279.27
2019-04-05T11:59:16.515Z,206.90
2019-04-05T12:01:56.315Z,517.87
2019-04-05T12:04:25.164Z,335.17
2019-04-05T12:06:53.987Z,466.07
2019-04-05T12:09:22.801Z,302.87
2019-04-05T12:11:51.835Z,232.27
2019-04-05T12:14:30.070Z,252.93
2019-04-05T12:16:51.235Z,399.40
2019-04-05T12:20:04.716Z,276.90
2019-04-05T12:23:37.096Z,342.03
2019-04-05T12:33:26.177Z,98.13
2019-04-05T12:35:56.672Z,75.50
2019-04-05T12:38:33.065Z,71.47
2019-04-05T12:41:04.207Z,128.00
2019-04-05T12:43:33.885Z,158.00
2019-04-05T12:46:04.218Z,156.53
2019-04-05T12:48:34.732Z,146.10
2019-04-05T12:51:05.663Z,191.60
2019-04-05T12:53:35.393Z,77.73
2019-04-05T12:56:05.647Z,48.33
2019-04-05T12:58:34.974Z,78.43
2019-04-05T13:01:04.107Z,60.20
2019-04-05T13:03:33.091Z,35.73
2019-04-05T13:06:02.574Z,53.10
2019-04-05T13:08:31.513Z,49.10
2019-04-05T13:11:00.390Z,33.80
2019-04-05T13:13:29.554Z,27.83
2019-04-05T13:15:59.537Z,29.57
2019-04-05T13:18:30.466Z,28.30
2019-04-05T13:21:00.346Z,29.07
2019-04-05T13:23:29.488Z,29.07
2019-04-05T13:25:58.393Z,28.40
2019-04-05T13:28:30.256Z,29.60
2019-04-05T13:30:59.070Z,30.30
2019-04-05T13:33:29.078Z,30.03
2019-04-05T13:35:58.129Z,30.07
2019-04-05T13:38:26.938Z,29.07
2019-04-05T13:40:56.997Z,29.03
2019-04-05T13:43:29.794Z,30.07
2019-04-05T13:45:58.677Z,30.70
2019-04-05T13:48:27.761Z,32.50
2019-04-05T13:50:56.578Z,30.27
2019-04-05T13:53:25.492Z,27.93
2019-04-05T13:55:54.371Z,26.93
2019-04-05T13:58:23.837Z,29.03
2019-04-05T14:00:52.698Z,26.23
2019-04-05T14:03:21.611Z,29.27
2019-04-05T14:05:54.036Z,30.70
2019-04-05T14:08:21.292Z,28.03
2019-04-05T14:10:50.107Z,27.77
2019-04-05T14:14:00.443Z,28.30
2019-04-05T14:16:30.626Z,29.33
2019-04-05T14:19:18.452Z,29.20
2019-04-05T14:21:52.698Z,30.20
2019-04-05T14:24:23.437Z,29.30
2019-04-05T14:26:55.552Z,30.63
2019-04-05T14:29:28.721Z,30.70
2019-04-05T14:32:02.543Z,30.63
2019-04-05T14:34:28.235Z,31.77
2019-04-05T14:36:57.120Z,32.63
2019-04-05T14:39:57.363Z,32.63
2019-04-05T14:42:29.359Z,30.10
2019-04-05T14:44:56.888Z,33.60
2019-04-05T14:47:27.984Z,30.43
2019-04-05T14:49:56.225Z,33.80
2019-04-05T14:52:25.749Z,31.83
2019-04-05T14:54:54.790Z,32.27
2019-04-05T14:57:23.587Z,31.53
2019-04-05T14:59:52.409Z,32.83
2019-04-05T15:02:35.241Z,32.13
2019-04-05T15:05:04.532Z,34.93
2019-04-05T15:07:33.327Z,32.00
2019-04-05T15:10:03.753Z,33.00
2019-04-05T15:12:32.865Z,38.60
2019-04-05T15:15:01.690Z,43.37
2019-04-05T15:17:30.491Z,41.83
2019-04-05T15:19:59.310Z,44.63
2019-04-05T15:22:28.119Z,45.70
2019-04-05T15:24:57.079Z,45.13
2019-04-05T15:27:25.874Z,46.10
2019-04-05T15:29:55.753Z,44.87
2019-04-05T15:32:26.065Z,52.40
2019-04-05T15:34:56.547Z,52.03
2019-04-05T15:37:25.545Z,55.30
2019-04-05T15:39:54.440Z,55.30
2019-04-05T15:42:23.314Z,59.40
2019-04-05T15:44:52.120Z,56.73
2019-04-05T15:47:23.261Z,61.50
2019-04-05T15:49:52.051Z,60.20
2019-04-05T15:52:21.747Z,62.40
2019-04-05T15:55:33.323Z,58.60
2019-04-05T15:59:10.987Z,58.53
2019-04-05T16:01:39.876Z,51.50
2019-04-05T16:04:08.844Z,50.93
2019-04-05T16:06:39.046Z,50.97
2019-04-05T16:09:10.073Z,53.90
2019-04-05T16:11:39.001Z,55.60
2019-04-05T16:14:07.829Z,56.83
2019-04-05T16:16:36.616Z,58.53
2019-04-05T16:19:05.586Z,62.80
2019-04-05T16:21:34.383Z,58.80
2019-04-05T16:24:03.194Z,57.67
2019-04-05T16:26:31.991Z,64.20
2019-04-05T16:29:00.914Z,59.47
2019-04-05T16:31:29.746Z,61.37
2019-04-05T16:33:58.544Z,59.90
2019-04-05T16:36:30.909Z,57.30
2019-04-05T16:38:59.073Z,57.03
2019-04-05T16:41:27.938Z,57.27
2019-04-05T16:44:01.045Z,54.87
2019-04-05T16:46:30.966Z,57.93
2019-04-05T16:49:00.885Z,56.40
2019-04-05T16:51:33.945Z,53.13
2019-04-05T16:54:04.021Z,57.60
2019-04-05T16:56:36.050Z,52.50
2019-04-05T16:59:06.129Z,48.70
2019-04-05T17:01:42.164Z,49.43
2019-04-05T17:04:12.036Z,47.30
2019-04-05T17:06:40.906Z,46.40
2019-04-05T17:09:09.881Z,47.07
2019-04-05T17:11:38.698Z,44.93
2019-04-05T17:14:07.671Z,49.07
2019-04-05T17:16:36.472Z,46.73
2019-04-05T17:19:05.464Z,49.07
2019-04-05T17:21:34.350Z,44.37
2019-04-05T17:24:03.258Z,45.10
2019-04-05T17:26:32.151Z,45.20
2019-04-05T17:29:01.033Z,43.50
2019-04-05T17:31:29.849Z,42.97
2019-04-05T17:33:58.691Z,44.73
2019-04-05T17:36:27.886Z,44.07
2019-04-05T17:39:07.982Z,46.03
2019-04-05T17:41:36.801Z,46.93
2019-04-05T17:44:18.816Z,45.03
2019-04-05T17:46:47.641Z,48.07
2019-04-05T17:49:16.528Z,46.93
2019-04-05T17:51:45.527Z,50.57
2019-04-05T17:54:14.417Z,48.50
2019-04-05T17:56:43.391Z,50.30
2019-04-05T17:59:13.471Z,50.27
2019-04-05T18:01:42.420Z,53.47
2019-04-05T18:04:12.356Z,53.40
2019-04-05T18:06:41.238Z,49.40
2019-04-05T18:09:12.057Z,54.53
2019-04-05T18:11:40.968Z,48.00
2019-04-05T18:14:09.839Z,49.50
2019-04-05T18:16:43.760Z,49.77
2019-04-05T18:19:13.573Z,45.80
2019-04-05T18:21:56.705Z,48.83
2019-04-05T18:24:25.596Z,51.70
2019-04-05T18:27:02.466Z,50.63
2019-04-05T18:29:32.260Z,51.10
2019-04-05T18:32:08.132Z,51.80
2019-04-05T18:34:40.187Z,49.20
2019-04-05T18:37:17.281Z,53.63
2019-04-05T18:39:49.418Z,53.80
2019-04-05T18:42:18.245Z,56.07
2019-04-05T18:44:47.112Z,54.37
2019-04-05T18:47:16.953Z,66.10
2019-04-05T18:49:47.550Z,58.53
2019-04-05T18:52:16.534Z,79.37
2019-04-05T18:54:45.425Z,61.00
2019-04-05T18:57:14.450Z,58.07
2019-04-05T18:59:43.285Z,61.73
2019-04-05T19:02:12.125Z,75.80
2019-04-05T19:04:41.022Z,54.50
2019-04-05T19:07:09.960Z,63.87
2019-04-05T19:09:38.891Z,44.77
2019-04-05T19:12:07.878Z,43.07
2019-04-05T19:14:36.792Z,61.90
2019-04-05T19:17:06.748Z,55.73
2019-04-05T19:19:37.293Z,62.60
2019-04-05T19:22:06.230Z,81.27
2019-04-05T19:24:35.041Z,66.57
2019-04-05T19:27:03.952Z,209.23
2019-04-05T19:29:32.846Z,56.83
2019-04-05T19:49:36.457Z,81.20
2019-04-05T19:52:05.445Z,63.10
2019-04-05T19:54:34.298Z,72.23
2019-04-05T19:57:03.138Z,78.43
2019-04-05T19:59:31.935Z,79.20
2019-04-05T20:02:00.841Z,103.07
2019-04-05T20:04:29.642Z,145.27
2019-04-05T20:06:58.931Z,114.80
2019-04-05T20:09:27.918Z,95.20
2019-04-05T20:11:56.735Z,65.80
2019-04-05T20:14:25.556Z,95.93
2019-04-05T20:16:54.454Z,173.67
2019-04-05T20:19:23.333Z,105.63
2019-04-05T20:21:52.153Z,57.90
2019-04-05T20:24:20.954Z,58.97
2019-04-05T20:26:49.773Z,65.10
2019-04-05T20:29:18.941Z,228.67
2019-04-05T20:31:47.801Z,141.30
2019-04-05T20:34:16.618Z,175.00
2019-04-05T20:36:45.551Z,116.47
2019-04-05T20:39:15.306Z,207.13
2019-04-05T20:41:44.170Z,366.43
2019-04-05T20:44:13.085Z,159.77
2019-04-05T20:46:42.033Z,104.57
2019-04-05T20:49:12.003Z,113.17
2019-04-05T20:51:41.041Z,197.00
2019-04-05T20:54:09.854Z,40.47
2019-04-05T20:56:38.732Z,72.33
2019-04-05T20:59:07.563Z,29.43
2019-04-05T21:01:36.453Z,36.03
2019-04-05T21:04:05.292Z,388.67
2019-04-05T21:06:34.102Z,80.90
2019-04-05T21:09:04.643Z,222.23
2019-04-05T21:11:33.454Z,153.80
2019-04-05T21:14:02.270Z,37.87
2019-04-05T21:16:31.089Z,44.13
2019-04-05T21:18:59.898Z,149.73
2019-04-05T21:21:28.697Z,42.13
2019-04-05T21:23:57.628Z,26.10
2019-04-05T21:26:26.432Z,419.00
2019-04-05T21:28:55.249Z,73.13
2019-04-05T21:31:24.096Z,500.33
2019-04-05T21:33:52.905Z,204.97
2019-04-05T21:36:21.698Z,268.10
2019-04-05T21:38:50.572Z,88.70
2019-04-05T21:41:19.378Z,35.37
2019-04-05T21:43:48.191Z,116.87
2019-04-05T21:46:16.981Z,31.00
2019-04-05T21:48:45.790Z,38.57
2019-04-05T21:51:14.658Z,123.47
2019-04-05T21:53:43.475Z,190.40
2019-04-05T21:56:12.351Z,124.53
2019-04-05T21:58:41.166Z,96.67
2019-04-05T22:01:10.888Z,128.07
2019-04-05T22:03:39.805Z,93.27
2019-04-05T22:06:08.718Z,111.30
2019-04-05T22:08:37.601Z,257.60
2019-04-05T22:11:06.411Z,169.67
2019-04-05T22:13:35.301Z,162.47
2019-04-05T22:16:04.205Z,186.90
2019-04-05T22:18:33.021Z,132.17
2019-04-05T22:21:01.824Z,159.87
2019-04-05T22:23:30.873Z,221.77
2019-04-05T22:25:59.749Z,338.20
2019-04-05T22:28:28.657Z,191.87
2019-04-05T22:30:57.508Z,368.13
2019-04-05T22:33:26.365Z,133.00
2019-04-05T22:35:55.237Z,118.17
2019-04-05T22:38:24.141Z,102.13
2019-04-05T22:40:53.063Z,154.63
2019-04-05T22:43:22.018Z,279.53
2019-04-05T22:45:50.831Z,135.97
2019-04-05T22:48:19.647Z,83.53
2019-04-05T22:50:48.460Z,181.10
2019-04-05T22:53:17.503Z,180.10
2019-04-05T22:55:46.395Z,155.63
2019-04-05T22:58:15.295Z,135.43
2019-04-05T23:00:44.130Z,165.47
2019-04-05T23:03:12.986Z,138.63
2019-04-05T23:05:41.801Z,176.37
2019-04-05T23:08:10.652Z,103.17
2019-04-05T23:10:39.489Z,103.20
2019-04-05T23:13:08.341Z,322.40
2019-04-05T23:15:37.157Z,159.60
2019-04-05T23:18:06.037Z,165.20
2019-04-05T23:20:35.089Z,177.43
2019-04-05T23:23:03.986Z,289.63
2019-04-05T23:25:32.860Z,243.90
2019-04-05T23:28:01.656Z,312.23
2019-04-05T23:30:31.281Z,197.47
2019-04-05T23:33:00.084Z,257.73
2019-04-05T23:35:28.888Z,367.67
2019-04-05T23:37:57.720Z,113.07
2019-04-05T23:40:26.541Z,139.07
2019-04-05T23:42:55.491Z,146.87
2019-04-05T23:45:24.506Z,371.77
2019-04-05T23:47:53.350Z,281.00
2019-04-05T23:50:22.298Z,188.20
2019-04-05T23:52:51.141Z,107.97
2019-04-05T23:55:20.006Z,179.77
2019-04-05T23:57:48.829Z,144.83
